Zhe Pu Tuo 2012 — BKRA5 — position and weather

sailwx.info

Track history (hours):
 
Tides and Currents Weather Stations Pressure Air Temp Water Temp Dewpoint Dewpoint Depression Visibility Wind Speed Wind Dir Waves Ship Positions

Zhe Pu Tuo 2012

Last reported at 2016-Dec-06 06:06 UTC. Time now 2016-Dec-09 00:07 UTC.
Position N 38°55' E 118°16'.

; draft 3.7 m.

Type: Tug. MMSI: 412763040.

Date/timePositionNaut miles runAvg speedWind from/ knotsBaromVisibWave heightAir tempDewpointWater temp
2016-Dec-06 06:06N 38°55' E 118°16'5 8.7
2016-Dec-06 05:32N 38°56' E 118°10'9 8.9
2016-Dec-06 04:30N 38°57' E 117°58'8 8.7
2016-Dec-06 03:33N 38°58' E 117°47'3 3.1
2016-Dec-06 02:33N 38°59' E 117°44'0 0.2
2016-Dec-06 01:33N 38°59' E 117°43'0 0.0
2016-Dec-06 00:30N 38°59' E 117°43'0 0.0
2016-Dec-05 23:30N 38°59' E 117°43'0 0.0
2016-Dec-05 21:12N 38°59' E 117°43'0 0.0
2016-Dec-05 20:30N 38°59' E 117°43'0 0.0
2016-Dec-05 19:12N 38°59' E 117°43'0 0.0
2016-Dec-05 15:24N 38°59' E 117°43'0 0.0
2016-Dec-05 14:12N 38°59' E 117°43'0 0.0
2016-Dec-05 13:30N 38°59' E 117°43'0 0.0
2016-Dec-05 12:30N 38°59' E 117°43'0 0.0
2016-Dec-05 11:24N 38°59' E 117°43'0 0.0
2016-Dec-05 10:30N 38°59' E 117°43'0 0.0
2016-Dec-05 09:30N 38°59' E 117°43'0 0.4
2016-Dec-05 08:27N 38°59' E 117°44'0 0.0
2016-Dec-05 07:09N 38°59' E 117°44'0 0.4
2016-Dec-05 06:15N 38°59' E 117°44'1 0.5
2016-Dec-05 05:09N 38°59' E 117°43'0 0.0
2016-Dec-05 04:33N 38°59' E 117°43'0 0.0
2016-Dec-05 03:33N 38°59' E 117°43'0 0.0
2016-Dec-05 02:33N 38°59' E 117°43'0 0.0
2016-Dec-05 01:33N 38°59' E 117°43'0 0.0
2016-Dec-05 00:21N 38°59' E 117°43'0 0.0
2016-Dec-04 23:33N 38°59' E 117°43'0 0.0
2016-Dec-04 22:27N 38°59' E 117°43'0 0.0
2016-Dec-04 19:32N 38°59' E 117°43'6 5.6
2016-Dec-04 18:29N 38°58' E 117°51'8 6.2
2016-Dec-04 17:12N 38°50' E 117°53'13 6.9
2016-Dec-04 15:22N 38°38' E 117°47'4 5.3
2016-Dec-04 14:33N 38°36' E 117°52'9 8.5
2016-Dec-04 13:32N 38°33' E 118°03'  
2016-Dec-02 01:28N 38°26' E 118°26'0 0.5
2016-Dec-02 00:33N 38°27' E 118°26'1 0.0
2016-Nov-30 10:26N 38°27' E 118°25'0 0.0
2016-Nov-29 12:16N 38°27' E 118°24'0 0.0
2016-Nov-29 11:26N 38°27' E 118°24'9 0.4
2016-Nov-28 11:16N 38°29' E 118°14'7 9.6
2016-Nov-28 10:31N 38°32' E 118°05'9 9.6
2016-Nov-28 09:33N 38°36' E 117°54'6 6.1
2016-Nov-28 08:33N 38°38' E 117°47'0 0.0
2016-Nov-28 07:32N 38°38' E 117°47'3 3.5
2016-Nov-28 06:33N 38°41' E 117°49'9 8.7
2016-Nov-28 05:31N 38°49' E 117°54'6 6.4
2016-Nov-28 04:32N 38°56' E 117°55'8 8.2
2016-Nov-28 03:33N 38°59' E 117°46'2 1.0
2016-Nov-28 01:33N 38°59' E 117°43'0 0.0
2016-Nov-28 00:33N 38°59' E 117°43'0 0.0
2016-Nov-27 23:21N 38°59' E 117°43'0 0.0
2016-Nov-27 22:33N 38°59' E 117°43'0 0.0
2016-Nov-27 20:33N 38°59' E 117°43'0 0.0
2016-Nov-27 19:33N 38°59' E 117°43'0 0.0
2016-Nov-27 18:33N 38°59' E 117°43'0 0.0
2016-Nov-27 17:33N 38°59' E 117°43'0 0.0
2016-Nov-27 16:33N 38°59' E 117°43'0 0.0
2016-Nov-27 15:33N 38°59' E 117°43'0 0.0
2016-Nov-27 13:27N 38°59' E 117°43'0 0.0
2016-Nov-27 12:33N 38°59' E 117°43'0 0.0
2016-Nov-27 11:21N 38°59' E 117°43'0 0.0
2016-Nov-27 10:21N 38°59' E 117°43'0 0.0
2016-Nov-27 09:33N 38°59' E 117°43'0 0.0
2016-Nov-27 08:33N 38°59' E 117°43'0 0.0
2016-Nov-27 07:33N 38°59' E 117°43'1 0.5
2016-Nov-27 06:21N 38°59' E 117°44'0 0.0
2016-Nov-27 05:33N 38°59' E 117°44'0 0.3
2016-Nov-27 04:33N 38°59' E 117°44'1 0.3
2016-Nov-27 02:33N 38°59' E 117°43'0 0.0
2016-Nov-27 01:33N 38°59' E 117°43'0 0.0
2016-Nov-27 00:27N 38°59' E 117°43'0 0.0
2016-Nov-26 23:33N 38°59' E 117°43'0 0.0
2016-Nov-26 22:33N 38°59' E 117°43'0 0.0
2016-Nov-26 21:27N 38°59' E 117°43'0 0.0
2016-Nov-26 20:33N 38°59' E 117°43'0 0.0
2016-Nov-26 18:21N 38°59' E 117°43'0 0.0
2016-Nov-26 17:27N 38°59' E 117°43'0 0.0
2016-Nov-26 16:33N 38°59' E 117°43'0 0.0
2016-Nov-26 15:33N 38°59' E 117°43'0 0.0
2016-Nov-26 14:33N 38°59' E 117°43'0 0.0
2016-Nov-26 13:27N 38°59' E 117°43'0 0.0
2016-Nov-26 12:33N 38°59' E 117°43'0 0.0
2016-Nov-26 11:27N 38°59' E 117°43'2 1.8
2016-Nov-26 10:33N 38°59' E 117°45'8 8.2
2016-Nov-26 09:33N 38°56' E 117°55'9 8.8
2016-Nov-26 08:33N 38°47' E 117°52'9 9.2
2016-Nov-26 07:34N 38°39' E 117°48'1 0.8
2016-Nov-26 06:34N 38°38' E 117°47'  
Track history (hours):
 
Tides and Currents Weather Stations Pressure Air Temp Water Temp Dewpoint Dewpoint Depression Visibility Wind Speed Wind Dir Waves Ship Positions

Zhe Pu Tuo 2012

Last reported at 2016-Dec-06 06:06 UTC. Time now 2016-Dec-09 00:07 UTC.
Position N 38°55' E 118°16'.

; draft 3.7 m.

Type: Tug. MMSI: 412763040.

Date/timePositionNaut miles runAvg speedWind from/ knotsBaromVisibWave heightAir tempDewpointWater temp
2016-Dec-06 06:06N 38°55' E 118°16'5 8.7
2016-Dec-06 05:32N 38°56' E 118°10'9 8.9
2016-Dec-06 04:30N 38°57' E 117°58'8 8.7
2016-Dec-06 03:33N 38°58' E 117°47'3 3.1
2016-Dec-06 02:33N 38°59' E 117°44'0 0.2
2016-Dec-06 01:33N 38°59' E 117°43'0 0.0
2016-Dec-06 00:30N 38°59' E 117°43'0 0.0
2016-Dec-05 23:30N 38°59' E 117°43'0 0.0
2016-Dec-05 21:12N 38°59' E 117°43'0 0.0
2016-Dec-05 20:30N 38°59' E 117°43'0 0.0
2016-Dec-05 19:12N 38°59' E 117°43'0 0.0
2016-Dec-05 15:24N 38°59' E 117°43'0 0.0
2016-Dec-05 14:12N 38°59' E 117°43'0 0.0
2016-Dec-05 13:30N 38°59' E 117°43'0 0.0
2016-Dec-05 12:30N 38°59' E 117°43'0 0.0
2016-Dec-05 11:24N 38°59' E 117°43'0 0.0
2016-Dec-05 10:30N 38°59' E 117°43'0 0.0
2016-Dec-05 09:30N 38°59' E 117°43'0 0.4
2016-Dec-05 08:27N 38°59' E 117°44'0 0.0
2016-Dec-05 07:09N 38°59' E 117°44'0 0.4
2016-Dec-05 06:15N 38°59' E 117°44'1 0.5
2016-Dec-05 05:09N 38°59' E 117°43'0 0.0
2016-Dec-05 04:33N 38°59' E 117°43'0 0.0
2016-Dec-05 03:33N 38°59' E 117°43'0 0.0
2016-Dec-05 02:33N 38°59' E 117°43'0 0.0
2016-Dec-05 01:33N 38°59' E 117°43'0 0.0
2016-Dec-05 00:21N 38°59' E 117°43'0 0.0
2016-Dec-04 23:33N 38°59' E 117°43'0 0.0
2016-Dec-04 22:27N 38°59' E 117°43'0 0.0
2016-Dec-04 19:32N 38°59' E 117°43'6 5.6
2016-Dec-04 18:29N 38°58' E 117°51'8 6.2
2016-Dec-04 17:12N 38°50' E 117°53'13 6.9
2016-Dec-04 15:22N 38°38' E 117°47'4 5.3
2016-Dec-04 14:33N 38°36' E 117°52'9 8.5
2016-Dec-04 13:32N 38°33' E 118°03'  
2016-Dec-02 01:28N 38°26' E 118°26'0 0.5
2016-Dec-02 00:33N 38°27' E 118°26'1 0.0
2016-Nov-30 10:26N 38°27' E 118°25'0 0.0
2016-Nov-29 12:16N 38°27' E 118°24'0 0.0
2016-Nov-29 11:26N 38°27' E 118°24'9 0.4
2016-Nov-28 11:16N 38°29' E 118°14'7 9.6
2016-Nov-28 10:31N 38°32' E 118°05'9 9.6
2016-Nov-28 09:33N 38°36' E 117°54'6 6.1
2016-Nov-28 08:33N 38°38' E 117°47'0 0.0
2016-Nov-28 07:32N 38°38' E 117°47'3 3.5
2016-Nov-28 06:33N 38°41' E 117°49'9 8.7
2016-Nov-28 05:31N 38°49' E 117°54'6 6.4
2016-Nov-28 04:32N 38°56' E 117°55'8 8.2
2016-Nov-28 03:33N 38°59' E 117°46'2 1.0
2016-Nov-28 01:33N 38°59' E 117°43'0 0.0
2016-Nov-28 00:33N 38°59' E 117°43'0 0.0
2016-Nov-27 23:21N 38°59' E 117°43'0 0.0
2016-Nov-27 22:33N 38°59' E 117°43'0 0.0
2016-Nov-27 20:33N 38°59' E 117°43'0 0.0
2016-Nov-27 19:33N 38°59' E 117°43'0 0.0
2016-Nov-27 18:33N 38°59' E 117°43'0 0.0
2016-Nov-27 17:33N 38°59' E 117°43'0 0.0
2016-Nov-27 16:33N 38°59' E 117°43'0 0.0
2016-Nov-27 15:33N 38°59' E 117°43'0 0.0
2016-Nov-27 13:27N 38°59' E 117°43'0 0.0
2016-Nov-27 12:33N 38°59' E 117°43'0 0.0
2016-Nov-27 11:21N 38°59' E 117°43'0 0.0
2016-Nov-27 10:21N 38°59' E 117°43'0 0.0
2016-Nov-27 09:33N 38°59' E 117°43'0 0.0
2016-Nov-27 08:33N 38°59' E 117°43'0 0.0
2016-Nov-27 07:33N 38°59' E 117°43'1 0.5
2016-Nov-27 06:21N 38°59' E 117°44'0 0.0
2016-Nov-27 05:33N 38°59' E 117°44'0 0.3
2016-Nov-27 04:33N 38°59' E 117°44'1 0.3
2016-Nov-27 02:33N 38°59' E 117°43'0 0.0
2016-Nov-27 01:33N 38°59' E 117°43'0 0.0
2016-Nov-27 00:27N 38°59' E 117°43'0 0.0
2016-Nov-26 23:33N 38°59' E 117°43'0 0.0
2016-Nov-26 22:33N 38°59' E 117°43'0 0.0
2016-Nov-26 21:27N 38°59' E 117°43'0 0.0
2016-Nov-26 20:33N 38°59' E 117°43'0 0.0
2016-Nov-26 18:21N 38°59' E 117°43'0 0.0
2016-Nov-26 17:27N 38°59' E 117°43'0 0.0
2016-Nov-26 16:33N 38°59' E 117°43'0 0.0
2016-Nov-26 15:33N 38°59' E 117°43'0 0.0
2016-Nov-26 14:33N 38°59' E 117°43'0 0.0
2016-Nov-26 13:27N 38°59' E 117°43'0 0.0
2016-Nov-26 12:33N 38°59' E 117°43'0 0.0
2016-Nov-26 11:27N 38°59' E 117°43'2 1.8
2016-Nov-26 10:33N 38°59' E 117°45'8 8.2
2016-Nov-26 09:33N 38°56' E 117°55'9 8.8
2016-Nov-26 08:33N 38°47' E 117°52'9 9.2
2016-Nov-26 07:34N 38°39' E 117°48'1 0.8
2016-Nov-26 06:34N 38°38' E 117°47'  

Dump ship's entire track history